KMTH/MTH METAR and TAF weather

Enter ICAO airport designator
Station Type Date Time Source
KMTH METAR 2021/09/25 11:53 UTC NOAA

KMTH 251153Z AUTO 00000KT 10SM CLR 26/24 A2998 RMK AO2 SLP150 T02610244 10278 20256 53016


Station Type Date Time Source
KMTH Decoded METAR 2021/09/25 11:53 UTC NOAA

MARATHON AIRPORT, FL, United States (KMTH) 24-44N 81-03W 2M
Sep 25, 2021 - 07:53 AM EDT / 2021.09.25 1153 UTC
Wind: Calm:0
Visibility: 10 mile(s):0
Sky conditions: clear
Temperature: 79.0 F (26.1 C)
Dew Point: 75.9 F (24.4 C)
Relative Humidity: 90%
Pressure (altimeter): 29.98 in. Hg (1015 hPa)
Pressure tendency: 0.05 inches (1.6 hPa) higher than three hours ago
ob: KMTH 251153Z AUTO 00000KT 10SM CLR 26/24 A2998 RMK AO2 SLP150 T02610244 10278 20256 53016
cycle: 12

Station Type Date Time Source
KMTH TAF 2021/09/25 12:30 UTC NOAA

TAF KMTH 251127Z 2512/2612 VRB03KT P6SM VCSH SCT020
FM260100 07003KT P6SM SCT020

Example: see airport list